Terminal Aerodrome Forecast
Issued by NWS Sterling, VA

Current Version | Previous Version | Graphics & Text | Print | Product List | Glossary On
Versions: 1 2 3 4 5 6 7 8 9 10 11 12 13 14 15 16 17 18 19 20 21 22 23 24
838
FTUS41 KLWX 201735
TAFDCA
TAF
KDCA 201735Z 2018/2118 27005KT P6SM FEW150
     FM202000 21004KT P6SM VCTS BKN050CB
     FM210100 15006KT P6SM BKN110
     FM211100 22006KT P6SM BKN080=

USA.gov is the U.S. government's official web portal to all federal, state and local government web resources and services.